Malibu, CA

12:32 PM PDT on April 19, 2015 (GMT -0700)
Point Mugu Naval Air Station | | Change Station
CLOSE
Current Station
Airport
Location: Point Mugu,
Elevation: 13 ft
Nearby Weather Stations

Elev 13 ft 34.12 °N, 119.12 °W | Updated 36 minutes ago

Partly Cloudy
Partly Cloudy
60 °F
Feels Like 60 °F
N
12
Wind Variable Wind from West

Today
High -- | Low -- °F
--% Chance of Precip.
Yesterday
High -- | Low -- °F
Precip. -- in
6:19 AM 7:29 PM
New Moon, 2% visible
Pressure 29.97 in
Visibility 9.0 miles
Clouds Few 600 ft
Few 30000 ft
Dew Point 53 °F
Humidity 78%
Rainfall 0.00 in
Snow Depth Not available.
UV 10 out of 12
Pollen 7.20 out of 12
Air Quality Not available.
Flu Activity Sporadic
METAR KNTD 191856Z 27010KT 9SM FEW006 FEW300 16/12 A2997 RMK AO2 SLP149 T01560117 $

More Conditions Fewer Conditions

Pressure 29.97 in
Visibility 9.0 miles
Clouds Few 600 ft
Few 30000 ft
Dew Point 53 °F
Humidity 78%
Rainfall 0.00 in
Snow Depth Not available.
UV 10 out of 12
Pollen 7.20 out of 12
Air Quality Not available.
Flu Activity Sporadic
METAR KNTD 191856Z 27010KT 9SM FEW006 FEW300 16/12 A2997 RMK AO2 SLP149 T01560117 $

More Conditions Fewer Conditions

10-Day Weather Forecast

Almanac

Astronomy

Apr. 19, 2015 Rise Set
Actual Time
Civil Twilight
Nautical Twilight
Astronomical Twilight
Moon
Length of Visible Light
Length of Day
Tomorrow will be .
, % of the Moon is Illuminated

Today's Extremes

State Highs State Lows

Community

WunderPhotos

Upload Photos

1,814,944 photos uploaded!

WunderBlogs® & News

Nearby

Air Quality

  Air Quality AQ Index Pollutant
Not available.

Snow Depth

Station Depth Elevation

Earthquake Activity

City Distance Mag. Time & Date
Minimum magnitude displayed is 2.5.

Coastal Water Temperatures

Place Temperature

Stations

Nearby Weather Stations

Station Location Temp. Windchill Dew Point Humidity Wind Precip. Elev Updated Type